San Juan, PR

2:57 PM AST on March 28, 2017 (GMT -0400)
kp4.Levittown Lakes PR | | Change Station

Elev 24 ft 18.44 °N, 66.17 °W | Updated 14 seconds ago

Mostly Cloudy
Mostly Cloudy
82.4 °F
Feels Like 88 °F
N
10.7
Wind Variable Wind from North
Gusts 12.3 mph

Today
High -- | Low -- °F
--% Chance of Precip.
Yesterday
High -- | Low -- °F
Precip. -- in
Pressure 29.94 in
Visibility 10.0 miles
Clouds Few 1600 ft
Scattered Clouds 3500 ft
Mostly Cloudy 10000 ft
Heat Index 88 °F
Dew Point 74 °F
Humidity 75%
Rainfall 0.00 in
Snow Depth Not available.
6:21 AM 6:37 PM
New Moon, 1% visible
METAR TJSJ 281756Z 34005KT 10SM -RA FEW016 SCT035 BKN100 25/24 A2994 RMK AO2 RAE1658B37 SLP136 VIS LWR NE SE-S P0006 60041 T02500239 10306 20250 58008 $
Pressure 29.94 in
Visibility 10.0 miles
Clouds Few 1600 ft
Scattered Clouds 3500 ft
Mostly Cloudy 10000 ft
Heat Index 88 °F
Dew Point 74 °F
Humidity 75%
Rainfall 0.00 in
Snow Depth Not available.
6:21 AM 6:37 PM
New Moon, 1% visible
METAR TJSJ 281756Z 34005KT 10SM -RA FEW016 SCT035 BKN100 25/24 A2994 RMK AO2 RAE1658B37 SLP136 VIS LWR NE SE-S P0006 60041 T02500239 10306 20250 58008 $

Get Severe Weather Alerts

Thanks for signing up!

Be on the lookout for a verification email in your inbox.

You'll start receiving the daily forecast at 8 AM.

×

10-Day Weather Forecast

Almanac

Astronomy

Mar. 28, 2017 Rise Set
Actual Time
Civil Twilight
Nautical Twilight
Astronomical Twilight
Moon
Length of Visible Light
Length of Day
Tomorrow will be .
, % of the Moon is Illuminated

Today's Extremes

State Highs State Lows

Community

WunderPhotos

Upload Photos

1,962,540 photos uploaded!

WunderBlog® & News

Nearby

Air Quality

  Air Quality AQ Index Pollutant
Not available.

Snow Depth

Station Depth Elevation

Earthquake Activity

City Distance Mag. Time & Date
Minimum magnitude displayed is 2.5.

Earthquake Activity

City Distance Mag. Time & Date
Minimum magnitude displayed is 2.5.

Coastal Water Temperatures

Place Temperature

Stations

Nearby Weather Stations

Station Location Temp. Windchill Dew Point Humidity Wind Precip. Elev Updated Type
                   

Watches & Warnings

There are currently no watches in effect.